sensor_id;sensor_type;location;lat;lon;timestamp;temperature;humidity
52725;DHT22;38621;52.830;6.914;2023-05-02T00:00:30;11.50;99.90
52725;DHT22;38621;52.830;6.914;2023-05-02T00:02:56;11.50;99.90
52725;DHT22;38621;52.830;6.914;2023-05-02T00:05:22;11.50;99.90
52725;DHT22;38621;52.830;6.914;2023-05-02T00:07:49;11.50;99.90
52725;DHT22;38621;52.830;6.914;2023-05-02T00:10:16;11.60;99.90
52725;DHT22;38621;52.830;6.914;2023-05-02T00:12:42;11.60;99.90
52725;DHT22;38621;52.830;6.914;2023-05-02T00:15:08;11.60;99.90
52725;DHT22;38621;52.830;6.914;2023-05-02T00:17:35;11.60;99.90
52725;DHT22;38621;52.830;6.914;2023-05-02T00:20:01;11.60;99.90
52725;DHT22;38621;52.830;6.914;2023-05-02T00:22:29;11.60;99.90
52725;DHT22;38621;52.830;6.914;2023-05-02T00:24:56;11.50;99.90
52725;DHT22;38621;52.830;6.914;2023-05-02T00:27:22;11.50;99.90
52725;DHT22;38621;52.830;6.914;2023-05-02T00:29:47;11.50;99.90
52725;DHT22;38621;52.830;6.914;2023-05-02T00:32:13;11.40;99.90
52725;DHT22;38621;52.830;6.914;2023-05-02T00:34:40;11.40;99.90
52725;DHT22;38621;52.830;6.914;2023-05-02T00:37:06;11.40;99.90
52725;DHT22;38621;52.830;6.914;2023-05-02T00:39:33;11.40;99.90
52725;DHT22;38621;52.830;6.914;2023-05-02T00:42:00;11.30;99.90
52725;DHT22;38621;52.830;6.914;2023-05-02T00:44:26;11.30;99.90
52725;DHT22;38621;52.830;6.914;2023-05-02T00:46:54;11.30;99.90
52725;DHT22;38621;52.830;6.914;2023-05-02T00:49:20;11.20;99.90
52725;DHT22;38621;52.830;6.914;2023-05-02T00:51:45;11.20;99.90
52725;DHT22;38621;52.830;6.914;2023-05-02T00:54:14;11.10;99.90
52725;DHT22;38621;52.830;6.914;2023-05-02T00:56:40;11.10;99.90
52725;DHT22;38621;52.830;6.914;2023-05-02T00:59:07;11.00;99.90
52725;DHT22;38621;52.830;6.914;2023-05-02T01:01:44;11.00;99.90
52725;DHT22;38621;52.830;6.914;2023-05-02T01:07:19;10.90;99.90
52725;DHT22;38621;52.830;6.914;2023-05-02T01:13:00;10.90;99.90
52725;DHT22;38621;52.830;6.914;2023-05-02T01:15:27;10.90;99.90
52725;DHT22;38621;52.830;6.914;2023-05-02T01:17:55;10.90;99.90
52725;DHT22;38621;52.830;6.914;2023-05-02T01:20:23;10.90;99.90
52725;DHT22;38621;52.830;6.914;2023-05-02T01:22:51;10.90;99.90
52725;DHT22;38621;52.830;6.914;2023-05-02T01:31:25;10.60;99.90
52725;DHT22;38621;52.830;6.914;2023-05-02T01:33:54;10.50;99.90
52725;DHT22;38621;52.830;6.914;2023-05-02T01:36:23;10.50;99.90
52725;DHT22;38621;52.830;6.914;2023-05-02T01:38:50;10.40;99.90
52725;DHT22;38621;52.830;6.914;2023-05-02T01:41:17;10.40;99.90
52725;DHT22;38621;52.830;6.914;2023-05-02T01:43:44;10.40;99.90
52725;DHT22;38621;52.830;6.914;2023-05-02T01:46:13;10.30;99.90
52725;DHT22;38621;52.830;6.914;2023-05-02T01:48:41;10.30;99.90
52725;DHT22;38621;52.830;6.914;2023-05-02T01:51:10;10.30;99.90
52725;DHT22;38621;52.830;6.914;2023-05-02T01:53:37;10.40;99.90
52725;DHT22;38621;52.830;6.914;2023-05-02T01:56:04;10.30;99.90
52725;DHT22;38621;52.830;6.914;2023-05-02T01:58:32;10.30;99.90
52725;DHT22;38621;52.830;6.914;2023-05-02T02:00:59;10.30;99.90
52725;DHT22;38621;52.830;6.914;2023-05-02T02:03:28;10.30;99.90
52725;DHT22;38621;52.830;6.914;2023-05-02T02:05:54;10.40;99.90
52725;DHT22;38621;52.830;6.914;2023-05-02T02:08:21;10.40;99.90
52725;DHT22;38621;52.830;6.914;2023-05-02T02:10:53;10.40;99.90
52725;DHT22;38621;52.830;6.914;2023-05-02T02:13:36;10.40;99.90
52725;DHT22;38621;52.830;6.914;2023-05-02T02:16:05;10.40;99.90
52725;DHT22;38621;52.830;6.914;2023-05-02T02:18:36;10.40;99.90
52725;DHT22;38621;52.830;6.914;2023-05-02T02:21:06;10.30;99.90
52725;DHT22;38621;52.830;6.914;2023-05-02T02:23:34;10.30;99.90
52725;DHT22;38621;52.830;6.914;2023-05-02T02:26:01;10.30;99.90
52725;DHT22;38621;52.830;6.914;2023-05-02T02:28:29;10.20;99.90
52725;DHT22;38621;52.830;6.914;2023-05-02T02:30:56;10.20;99.90
52725;DHT22;38621;52.830;6.914;2023-05-02T02:33:23;10.20;99.90
52725;DHT22;38621;52.830;6.914;2023-05-02T02:36:04;10.20;99.90
52725;DHT22;38621;52.830;6.914;2023-05-02T02:38:42;10.10;99.90
52725;DHT22;38621;52.830;6.914;2023-05-02T02:41:24;10.10;99.90
52725;DHT22;38621;52.830;6.914;2023-05-02T02:44:13;10.10;99.90
52725;DHT22;38621;52.830;6.914;2023-05-02T02:47:15;10.10;99.90
52725;DHT22;38621;52.830;6.914;2023-05-02T02:52:23;10.00;99.90
52725;DHT22;38621;52.830;6.914;2023-05-02T02:55:19;10.00;99.90
52725;DHT22;38621;52.830;6.914;2023-05-02T03:00:26;9.90;99.90
52725;DHT22;38621;52.830;6.914;2023-05-02T03:02:53;9.70;99.90
52725;DHT22;38621;52.830;6.914;2023-05-02T03:05:20;9.60;99.90
52725;DHT22;38621;52.830;6.914;2023-05-02T03:07:46;9.50;99.90
52725;DHT22;38621;52.830;6.914;2023-05-02T03:10:12;9.40;99.90
52725;DHT22;38621;52.830;6.914;2023-05-02T03:12:38;9.30;99.90
52725;DHT22;38621;52.830;6.914;2023-05-02T03:15:24;9.20;99.90
52725;DHT22;38621;52.830;6.914;2023-05-02T03:17:55;9.20;99.90
52725;DHT22;38621;52.830;6.914;2023-05-02T03:20:20;9.10;99.90
52725;DHT22;38621;52.830;6.914;2023-05-02T03:22:46;9.00;99.90
52725;DHT22;38621;52.830;6.914;2023-05-02T03:25:12;8.90;99.90
52725;DHT22;38621;52.830;6.914;2023-05-02T03:27:38;8.80;99.90
52725;DHT22;38621;52.830;6.914;2023-05-02T03:30:04;8.80;99.90
52725;DHT22;38621;52.830;6.914;2023-05-02T03:32:30;8.80;99.90
52725;DHT22;38621;52.830;6.914;2023-05-02T03:34:55;8.80;99.90
52725;DHT22;38621;52.830;6.914;2023-05-02T03:37:23;8.80;99.90
52725;DHT22;38621;52.830;6.914;2023-05-02T03:39:49;8.70;99.90
52725;DHT22;38621;52.830;6.914;2023-05-02T03:42:15;8.70;99.90
52725;DHT22;38621;52.830;6.914;2023-05-02T03:44:40;8.70;99.90
52725;DHT22;38621;52.830;6.914;2023-05-02T03:47:06;8.70;99.90
52725;DHT22;38621;52.830;6.914;2023-05-02T03:49:35;8.70;99.90
52725;DHT22;38621;52.830;6.914;2023-05-02T03:52:01;8.70;99.90
52725;DHT22;38621;52.830;6.914;2023-05-02T03:54:28;8.60;99.90
52725;DHT22;38621;52.830;6.914;2023-05-02T03:56:56;8.60;99.90
52725;DHT22;38621;52.830;6.914;2023-05-02T03:59:22;8.50;99.90
52725;DHT22;38621;52.830;6.914;2023-05-02T04:01:48;8.50;99.90
52725;DHT22;38621;52.830;6.914;2023-05-02T04:04:16;8.50;99.90
52725;DHT22;38621;52.830;6.914;2023-05-02T04:06:42;8.40;99.90
52725;DHT22;38621;52.830;6.914;2023-05-02T04:09:08;8.40;99.90
52725;DHT22;38621;52.830;6.914;2023-05-02T04:11:33;8.40;99.90
52725;DHT22;38621;52.830;6.914;2023-05-02T04:13:59;8.40;99.90
52725;DHT22;38621;52.830;6.914;2023-05-02T04:16:25;8.30;99.90
52725;DHT22;38621;52.830;6.914;2023-05-02T04:18:50;8.30;99.90
52725;DHT22;38621;52.830;6.914;2023-05-02T04:21:16;8.30;99.90
52725;DHT22;38621;52.830;6.914;2023-05-02T04:23:42;8.30;99.90
52725;DHT22;38621;52.830;6.914;2023-05-02T04:26:07;8.20;99.90
52725;DHT22;38621;52.830;6.914;2023-05-02T04:28:34;8.20;99.90
52725;DHT22;38621;52.830;6.914;2023-05-02T04:31:01;8.20;99.90
52725;DHT22;38621;52.830;6.914;2023-05-02T04:33:28;8.20;99.90
52725;DHT22;38621;52.830;6.914;2023-05-02T04:35:54;8.10;99.90
52725;DHT22;38621;52.830;6.914;2023-05-02T04:38:20;8.10;99.90
52725;DHT22;38621;52.830;6.914;2023-05-02T04:40:46;8.10;99.90
52725;DHT22;38621;52.830;6.914;2023-05-02T04:43:11;8.00;99.90
52725;DHT22;38621;52.830;6.914;2023-05-02T04:45:37;8.00;99.90
52725;DHT22;38621;52.830;6.914;2023-05-02T04:48:03;8.00;99.90
52725;DHT22;38621;52.830;6.914;2023-05-02T04:50:29;8.00;99.90
52725;DHT22;38621;52.830;6.914;2023-05-02T04:52:56;8.00;99.90
52725;DHT22;38621;52.830;6.914;2023-05-02T04:55:22;7.90;99.90
52725;DHT22;38621;52.830;6.914;2023-05-02T04:57:48;7.90;99.90
52725;DHT22;38621;52.830;6.914;2023-05-02T05:00:14;7.90;99.90
52725;DHT22;38621;52.830;6.914;2023-05-02T05:02:40;7.90;99.90
52725;DHT22;38621;52.830;6.914;2023-05-02T05:05:06;7.90;99.90
52725;DHT22;38621;52.830;6.914;2023-05-02T05:07:32;7.90;99.90
52725;DHT22;38621;52.830;6.914;2023-05-02T05:09:57;7.90;99.90
52725;DHT22;38621;52.830;6.914;2023-05-02T05:12:23;8.00;99.90
52725;DHT22;38621;52.830;6.914;2023-05-02T05:14:49;8.00;99.90
52725;DHT22;38621;52.830;6.914;2023-05-02T05:17:15;8.00;99.90
52725;DHT22;38621;52.830;6.914;2023-05-02T05:19:40;8.00;99.90
52725;DHT22;38621;52.830;6.914;2023-05-02T05:22:07;8.00;99.90
52725;DHT22;38621;52.830;6.914;2023-05-02T05:24:32;8.00;99.90
52725;DHT22;38621;52.830;6.914;2023-05-02T05:26:58;8.10;99.90
52725;DHT22;38621;52.830;6.914;2023-05-02T05:29:24;8.10;99.90
52725;DHT22;38621;52.830;6.914;2023-05-02T05:31:49;8.00;99.90
52725;DHT22;38621;52.830;6.914;2023-05-02T05:34:15;8.10;99.90
52725;DHT22;38621;52.830;6.914;2023-05-02T05:36:41;8.00;99.90
52725;DHT22;38621;52.830;6.914;2023-05-02T05:39:07;8.10;99.90
52725;DHT22;38621;52.830;6.914;2023-05-02T05:41:33;8.20;99.90
52725;DHT22;38621;52.830;6.914;2023-05-02T05:43:59;8.10;99.90
52725;DHT22;38621;52.830;6.914;2023-05-02T05:46:25;8.20;99.90
52725;DHT22;38621;52.830;6.914;2023-05-02T05:48:51;8.10;99.90
52725;DHT22;38621;52.830;6.914;2023-05-02T05:51:17;8.20;99.90
52725;DHT22;38621;52.830;6.914;2023-05-02T05:53:43;8.20;99.90
52725;DHT22;38621;52.830;6.914;2023-05-02T05:56:12;8.20;99.90
52725;DHT22;38621;52.830;6.914;2023-05-02T05:58:38;8.20;99.90
52725;DHT22;38621;52.830;6.914;2023-05-02T06:01:04;8.20;99.90
52725;DHT22;38621;52.830;6.914;2023-05-02T06:03:30;8.20;99.90
52725;DHT22;38621;52.830;6.914;2023-05-02T06:05:56;8.30;99.90
52725;DHT22;38621;52.830;6.914;2023-05-02T06:08:22;8.30;99.90
52725;DHT22;38621;52.830;6.914;2023-05-02T06:10:48;8.30;99.90
52725;DHT22;38621;52.830;6.914;2023-05-02T06:13:13;8.40;99.90
52725;DHT22;38621;52.830;6.914;2023-05-02T06:15:39;8.40;99.90
52725;DHT22;38621;52.830;6.914;2023-05-02T06:18:05;8.40;99.90
52725;DHT22;38621;52.830;6.914;2023-05-02T06:20:31;8.50;99.90
52725;DHT22;38621;52.830;6.914;2023-05-02T06:22:57;8.60;99.90
52725;DHT22;38621;52.830;6.914;2023-05-02T06:25:22;8.70;99.90
52725;DHT22;38621;52.830;6.914;2023-05-02T06:27:48;8.80;99.90
52725;DHT22;38621;52.830;6.914;2023-05-02T06:30:14;8.90;99.90
52725;DHT22;38621;52.830;6.914;2023-05-02T06:32:39;9.00;99.90
52725;DHT22;38621;52.830;6.914;2023-05-02T06:35:07;8.90;99.90
52725;DHT22;38621;52.830;6.914;2023-05-02T06:37:35;8.90;99.90
52725;DHT22;38621;52.830;6.914;2023-05-02T06:40:01;8.90;99.90
52725;DHT22;38621;52.830;6.914;2023-05-02T06:42:27;8.90;99.90
52725;DHT22;38621;52.830;6.914;2023-05-02T06:44:54;8.90;99.90
52725;DHT22;38621;52.830;6.914;2023-05-02T06:47:20;8.90;99.90
52725;DHT22;38621;52.830;6.914;2023-05-02T06:49:51;8.90;99.90
52725;DHT22;38621;52.830;6.914;2023-05-02T06:52:18;8.90;99.90
52725;DHT22;38621;52.830;6.914;2023-05-02T06:54:43;8.90;99.90
52725;DHT22;38621;52.830;6.914;2023-05-02T06:57:09;8.90;99.90
52725;DHT22;38621;52.830;6.914;2023-05-02T06:59:35;8.90;99.90
52725;DHT22;38621;52.830;6.914;2023-05-02T07:02:01;8.90;99.90
52725;DHT22;38621;52.830;6.914;2023-05-02T07:04:26;8.90;99.90
52725;DHT22;38621;52.830;6.914;2023-05-02T07:06:52;8.90;99.90
52725;DHT22;38621;52.830;6.914;2023-05-02T07:09:18;8.90;99.90
52725;DHT22;38621;52.830;6.914;2023-05-02T07:11:44;8.90;99.90
52725;DHT22;38621;52.830;6.914;2023-05-02T07:14:09;9.00;99.90
52725;DHT22;38621;52.830;6.914;2023-05-02T07:16:35;9.00;99.90
52725;DHT22;38621;52.830;6.914;2023-05-02T07:19:01;9.00;99.90
52725;DHT22;38621;52.830;6.914;2023-05-02T07:21:29;9.10;99.90
52725;DHT22;38621;52.830;6.914;2023-05-02T07:23:54;9.20;99.90
52725;DHT22;38621;52.830;6.914;2023-05-02T07:26:22;9.30;99.90
52725;DHT22;38621;52.830;6.914;2023-05-02T07:28:48;9.30;99.90
52725;DHT22;38621;52.830;6.914;2023-05-02T07:31:13;9.20;99.90
52725;DHT22;38621;52.830;6.914;2023-05-02T07:33:39;9.20;99.90
52725;DHT22;38621;52.830;6.914;2023-05-02T07:36:05;9.20;99.90
52725;DHT22;38621;52.830;6.914;2023-05-02T07:38:31;9.30;99.90
52725;DHT22;38621;52.830;6.914;2023-05-02T07:40:57;9.30;99.90
52725;DHT22;38621;52.830;6.914;2023-05-02T07:43:23;9.40;99.90
52725;DHT22;38621;52.830;6.914;2023-05-02T07:45:49;9.50;99.90
52725;DHT22;38621;52.830;6.914;2023-05-02T07:48:14;9.40;99.90
52725;DHT22;38621;52.830;6.914;2023-05-02T07:50:40;9.40;99.90
52725;DHT22;38621;52.830;6.914;2023-05-02T07:53:06;9.50;99.90
52725;DHT22;38621;52.830;6.914;2023-05-02T07:55:32;9.50;99.90
52725;DHT22;38621;52.830;6.914;2023-05-02T07:57:58;9.50;99.90
52725;DHT22;38621;52.830;6.914;2023-05-02T08:00:23;9.60;99.90
52725;DHT22;38621;52.830;6.914;2023-05-02T08:02:49;9.70;99.90
52725;DHT22;38621;52.830;6.914;2023-05-02T08:05:15;9.70;99.90
52725;DHT22;38621;52.830;6.914;2023-05-02T08:07:41;9.80;99.90
52725;DHT22;38621;52.830;6.914;2023-05-02T08:10:07;9.90;99.90
52725;DHT22;38621;52.830;6.914;2023-05-02T08:12:37;10.00;99.90
52725;DHT22;38621;52.830;6.914;2023-05-02T08:15:06;10.00;99.90
52725;DHT22;38621;52.830;6.914;2023-05-02T08:17:32;10.00;99.90
52725;DHT22;38621;52.830;6.914;2023-05-02T08:19:58;10.10;99.90
52725;DHT22;38621;52.830;6.914;2023-05-02T08:22:24;10.20;99.90
52725;DHT22;38621;52.830;6.914;2023-05-02T08:24:49;10.30;99.90
52725;DHT22;38621;52.830;6.914;2023-05-02T08:27:15;10.40;99.90
52725;DHT22;38621;52.830;6.914;2023-05-02T08:29:41;10.30;99.90
52725;DHT22;38621;52.830;6.914;2023-05-02T08:32:06;10.20;99.90
52725;DHT22;38621;52.830;6.914;2023-05-02T08:34:32;10.20;99.90
52725;DHT22;38621;52.830;6.914;2023-05-02T08:36:58;10.10;99.90
52725;DHT22;38621;52.830;6.914;2023-05-02T08:39:24;10.20;99.90
52725;DHT22;38621;52.830;6.914;2023-05-02T08:41:49;10.30;99.90
52725;DHT22;38621;52.830;6.914;2023-05-02T08:44:16;10.60;99.90
52725;DHT22;38621;52.830;6.914;2023-05-02T08:46:42;10.70;99.90
52725;DHT22;38621;52.830;6.914;2023-05-02T08:49:09;10.80;99.90
52725;DHT22;38621;52.830;6.914;2023-05-02T08:51:36;10.90;99.90
52725;DHT22;38621;52.830;6.914;2023-05-02T08:54:03;11.00;99.90
52725;DHT22;38621;52.830;6.914;2023-05-02T08:56:31;11.00;99.90
52725;DHT22;38621;52.830;6.914;2023-05-02T08:58:57;11.00;99.90
52725;DHT22;38621;52.830;6.914;2023-05-02T09:01:23;11.10;99.90
52725;DHT22;38621;52.830;6.914;2023-05-02T09:03:51;11.10;99.90
52725;DHT22;38621;52.830;6.914;2023-05-02T09:06:20;11.20;99.90
52725;DHT22;38621;52.830;6.914;2023-05-02T09:08:47;11.20;99.90
52725;DHT22;38621;52.830;6.914;2023-05-02T09:11:14;11.20;99.90
52725;DHT22;38621;52.830;6.914;2023-05-02T09:13:50;11.30;99.90
52725;DHT22;38621;52.830;6.914;2023-05-02T09:16:23;11.30;99.90
52725;DHT22;38621;52.830;6.914;2023-05-02T09:18:57;11.30;99.90
52725;DHT22;38621;52.830;6.914;2023-05-02T09:21:25;11.20;99.90
52725;DHT22;38621;52.830;6.914;2023-05-02T09:23:56;11.20;99.90
52725;DHT22;38621;52.830;6.914;2023-05-02T09:26:28;11.20;99.90
52725;DHT22;38621;52.830;6.914;2023-05-02T09:28:57;11.00;99.90
52725;DHT22;38621;52.830;6.914;2023-05-02T09:31:25;11.00;99.90
52725;DHT22;38621;52.830;6.914;2023-05-02T09:33:51;11.00;99.90
52725;DHT22;38621;52.830;6.914;2023-05-02T09:36:18;11.00;99.90
52725;DHT22;38621;52.830;6.914;2023-05-02T09:38:46;11.10;99.90
52725;DHT22;38621;52.830;6.914;2023-05-02T09:41:12;11.20;99.90
52725;DHT22;38621;52.830;6.914;2023-05-02T09:43:39;11.20;99.90
52725;DHT22;38621;52.830;6.914;2023-05-02T09:46:09;11.30;99.90
52725;DHT22;38621;52.830;6.914;2023-05-02T09:48:54;11.30;99.90
52725;DHT22;38621;52.830;6.914;2023-05-02T09:51:21;11.40;99.90
52725;DHT22;38621;52.830;6.914;2023-05-02T09:53:47;11.40;99.90
52725;DHT22;38621;52.830;6.914;2023-05-02T09:56:13;11.40;99.90
52725;DHT22;38621;52.830;6.914;2023-05-02T09:58:39;11.40;99.90
52725;DHT22;38621;52.830;6.914;2023-05-02T10:01:05;11.40;99.90
52725;DHT22;38621;52.830;6.914;2023-05-02T10:03:31;11.40;99.90
52725;DHT22;38621;52.830;6.914;2023-05-02T10:06:01;11.30;99.90
52725;DHT22;38621;52.830;6.914;2023-05-02T10:08:27;11.10;99.90
52725;DHT22;38621;52.830;6.914;2023-05-02T10:10:57;11.00;99.90
52725;DHT22;38621;52.830;6.914;2023-05-02T10:13:25;11.10;99.90
52725;DHT22;38621;52.830;6.914;2023-05-02T10:16:02;11.10;99.90
52725;DHT22;38621;52.830;6.914;2023-05-02T10:18:55;11.10;99.90
52725;DHT22;38621;52.830;6.914;2023-05-02T10:21:26;11.10;99.90
52725;DHT22;38621;52.830;6.914;2023-05-02T10:23:52;11.20;99.90
52725;DHT22;38621;52.830;6.914;2023-05-02T10:26:19;11.40;99.90
52725;DHT22;38621;52.830;6.914;2023-05-02T10:28:48;11.60;99.90
52725;DHT22;38621;52.830;6.914;2023-05-02T10:31:15;11.80;99.90
52725;DHT22;38621;52.830;6.914;2023-05-02T10:33:42;12.00;99.90
52725;DHT22;38621;52.830;6.914;2023-05-02T10:36:09;12.10;99.90
52725;DHT22;38621;52.830;6.914;2023-05-02T10:38:38;12.40;99.90
52725;DHT22;38621;52.830;6.914;2023-05-02T10:41:09;12.90;99.90
52725;DHT22;38621;52.830;6.914;2023-05-02T10:43:37;13.40;99.90
52725;DHT22;38621;52.830;6.914;2023-05-02T10:46:33;13.50;99.90
52725;DHT22;38621;52.830;6.914;2023-05-02T10:49:06;13.60;99.90
52725;DHT22;38621;52.830;6.914;2023-05-02T10:51:34;13.60;99.90
52725;DHT22;38621;52.830;6.914;2023-05-02T10:59:29;13.50;99.90
52725;DHT22;38621;52.830;6.914;2023-05-02T11:01:56;13.60;99.90
52725;DHT22;38621;52.830;6.914;2023-05-02T11:04:23;13.60;99.90
52725;DHT22;38621;52.830;6.914;2023-05-02T11:11:54;13.60;99.90
52725;DHT22;38621;52.830;6.914;2023-05-02T11:19:27;13.70;99.90
52725;DHT22;38621;52.830;6.914;2023-05-02T11:24:44;13.70;99.90
52725;DHT22;38621;52.830;6.914;2023-05-02T11:30:07;13.30;99.90
52725;DHT22;38621;52.830;6.914;2023-05-02T11:35:25;13.10;99.90
52725;DHT22;38621;52.830;6.914;2023-05-02T11:37:59;13.20;99.90
52725;DHT22;38621;52.830;6.914;2023-05-02T11:40:26;13.30;99.90
52725;DHT22;38621;52.830;6.914;2023-05-02T11:42:52;13.60;99.90
52725;DHT22;38621;52.830;6.914;2023-05-02T11:45:18;13.60;99.90
52725;DHT22;38621;52.830;6.914;2023-05-02T11:47:46;13.70;99.90
52725;DHT22;38621;52.830;6.914;2023-05-02T11:50:13;13.70;99.90
52725;DHT22;38621;52.830;6.914;2023-05-02T11:52:41;13.60;99.90
52725;DHT22;38621;52.830;6.914;2023-05-02T11:55:09;13.50;99.90
52725;DHT22;38621;52.830;6.914;2023-05-02T11:57:36;13.30;99.90
52725;DHT22;38621;52.830;6.914;2023-05-02T12:00:02;13.20;99.90
52725;DHT22;38621;52.830;6.914;2023-05-02T12:02:39;13.10;99.90
52725;DHT22;38621;52.830;6.914;2023-05-02T12:05:07;13.00;99.90
52725;DHT22;38621;52.830;6.914;2023-05-02T12:07:38;12.90;99.90
52725;DHT22;38621;52.830;6.914;2023-05-02T12:10:05;12.90;99.90
52725;DHT22;38621;52.830;6.914;2023-05-02T12:12:31;12.80;99.90
52725;DHT22;38621;52.830;6.914;2023-05-02T12:14:58;12.80;99.90
52725;DHT22;38621;52.830;6.914;2023-05-02T12:17:28;12.80;99.90
52725;DHT22;38621;52.830;6.914;2023-05-02T12:19:54;12.90;99.90
52725;DHT22;38621;52.830;6.914;2023-05-02T12:22:22;13.00;99.90
52725;DHT22;38621;52.830;6.914;2023-05-02T12:24:48;12.90;99.90
52725;DHT22;38621;52.830;6.914;2023-05-02T12:27:15;12.80;99.90
52725;DHT22;38621;52.830;6.914;2023-05-02T12:29:45;12.70;99.90
52725;DHT22;38621;52.830;6.914;2023-05-02T12:32:12;12.70;99.90
52725;DHT22;38621;52.830;6.914;2023-05-02T12:34:38;12.80;99.90
52725;DHT22;38621;52.830;6.914;2023-05-02T12:37:05;12.80;99.90
52725;DHT22;38621;52.830;6.914;2023-05-02T12:39:39;12.80;99.90
52725;DHT22;38621;52.830;6.914;2023-05-02T12:42:12;12.90;99.90
52725;DHT22;38621;52.830;6.914;2023-05-02T12:44:40;12.90;99.90
52725;DHT22;38621;52.830;6.914;2023-05-02T12:47:09;13.00;99.90
52725;DHT22;38621;52.830;6.914;2023-05-02T12:49:51;13.10;99.90
52725;DHT22;38621;52.830;6.914;2023-05-02T12:55:22;13.20;99.90
52725;DHT22;38621;52.830;6.914;2023-05-02T12:57:49;13.20;99.90
52725;DHT22;38621;52.830;6.914;2023-05-02T13:00:16;13.20;99.90
52725;DHT22;38621;52.830;6.914;2023-05-02T13:02:41;13.20;99.90
52725;DHT22;38621;52.830;6.914;2023-05-02T13:05:17;13.20;99.90
52725;DHT22;38621;52.830;6.914;2023-05-02T13:07:43;13.10;99.90
52725;DHT22;38621;52.830;6.914;2023-05-02T13:10:09;13.00;99.90
52725;DHT22;38621;52.830;6.914;2023-05-02T13:12:38;12.90;99.90
52725;DHT22;38621;52.830;6.914;2023-05-02T13:15:05;12.90;99.90
52725;DHT22;38621;52.830;6.914;2023-05-02T13:17:32;12.80;99.90
52725;DHT22;38621;52.830;6.914;2023-05-02T13:19:57;12.60;99.90
52725;DHT22;38621;52.830;6.914;2023-05-02T13:22:24;12.50;99.90
52725;DHT22;38621;52.830;6.914;2023-05-02T13:24:50;12.40;99.90
52725;DHT22;38621;52.830;6.914;2023-05-02T13:27:16;12.30;99.90
52725;DHT22;38621;52.830;6.914;2023-05-02T13:29:47;12.20;99.90
52725;DHT22;38621;52.830;6.914;2023-05-02T13:32:13;12.20;99.90
52725;DHT22;38621;52.830;6.914;2023-05-02T13:34:38;12.20;99.90
52725;DHT22;38621;52.830;6.914;2023-05-02T13:37:04;12.20;99.90
52725;DHT22;38621;52.830;6.914;2023-05-02T13:39:30;12.20;99.90
52725;DHT22;38621;52.830;6.914;2023-05-02T13:41:55;12.20;99.90
52725;DHT22;38621;52.830;6.914;2023-05-02T13:44:21;12.30;99.90
52725;DHT22;38621;52.830;6.914;2023-05-02T13:46:47;12.30;99.90
52725;DHT22;38621;52.830;6.914;2023-05-02T13:49:12;12.30;99.90
52725;DHT22;38621;52.830;6.914;2023-05-02T13:51:38;12.20;99.90
52725;DHT22;38621;52.830;6.914;2023-05-02T13:54:04;12.10;99.90
52725;DHT22;38621;52.830;6.914;2023-05-02T13:56:30;12.10;99.90
52725;DHT22;38621;52.830;6.914;2023-05-02T13:58:56;12.10;99.90
52725;DHT22;38621;52.830;6.914;2023-05-02T14:01:22;12.10;99.90
52725;DHT22;38621;52.830;6.914;2023-05-02T14:03:47;12.20;99.90
52725;DHT22;38621;52.830;6.914;2023-05-02T14:06:13;12.20;99.90
52725;DHT22;38621;52.830;6.914;2023-05-02T14:08:39;12.30;99.90
52725;DHT22;38621;52.830;6.914;2023-05-02T14:11:05;12.50;99.90
52725;DHT22;38621;52.830;6.914;2023-05-02T14:13:30;12.60;99.90
52725;DHT22;38621;52.830;6.914;2023-05-02T14:15:56;12.90;99.90
52725;DHT22;38621;52.830;6.914;2023-05-02T14:18:23;13.10;99.90
52725;DHT22;38621;52.830;6.914;2023-05-02T14:20:48;13.10;99.90
52725;DHT22;38621;52.830;6.914;2023-05-02T14:23:14;13.10;99.90
52725;DHT22;38621;52.830;6.914;2023-05-02T14:25:40;13.00;99.90
52725;DHT22;38621;52.830;6.914;2023-05-02T14:28:06;12.90;99.90
52725;DHT22;38621;52.830;6.914;2023-05-02T14:30:32;12.80;99.90
52725;DHT22;38621;52.830;6.914;2023-05-02T14:32:58;12.80;99.90
52725;DHT22;38621;52.830;6.914;2023-05-02T14:35:24;12.80;99.90
52725;DHT22;38621;52.830;6.914;2023-05-02T14:37:50;12.80;99.90
52725;DHT22;38621;52.830;6.914;2023-05-02T14:40:15;12.80;99.90
52725;DHT22;38621;52.830;6.914;2023-05-02T14:42:41;12.80;99.90
52725;DHT22;38621;52.830;6.914;2023-05-02T14:45:08;12.90;99.90
52725;DHT22;38621;52.830;6.914;2023-05-02T14:47:35;12.90;99.90
52725;DHT22;38621;52.830;6.914;2023-05-02T14:50:04;13.10;99.90
52725;DHT22;38621;52.830;6.914;2023-05-02T14:52:30;14.20;99.90
52725;DHT22;38621;52.830;6.914;2023-05-02T14:55:00;15.70;99.90
52725;DHT22;38621;52.830;6.914;2023-05-02T14:57:26;16.50;99.90
52725;DHT22;38621;52.830;6.914;2023-05-02T14:59:52;16.30;99.90
52725;DHT22;38621;52.830;6.914;2023-05-02T15:02:18;15.70;99.90
52725;DHT22;38621;52.830;6.914;2023-05-02T15:04:44;15.00;99.90
52725;DHT22;38621;52.830;6.914;2023-05-02T15:07:10;14.50;99.90
52725;DHT22;38621;52.830;6.914;2023-05-02T15:09:36;14.10;99.90
52725;DHT22;38621;52.830;6.914;2023-05-02T15:12:01;13.90;99.90
52725;DHT22;38621;52.830;6.914;2023-05-02T15:14:27;13.70;99.90
52725;DHT22;38621;52.830;6.914;2023-05-02T15:16:53;13.50;99.90
52725;DHT22;38621;52.830;6.914;2023-05-02T15:19:19;13.40;99.90
52725;DHT22;38621;52.830;6.914;2023-05-02T15:21:47;13.30;99.90
52725;DHT22;38621;52.830;6.914;2023-05-02T15:24:14;13.30;99.90
52725;DHT22;38621;52.830;6.914;2023-05-02T15:26:40;13.40;99.90
52725;DHT22;38621;52.830;6.914;2023-05-02T15:29:06;13.40;99.90
52725;DHT22;38621;52.830;6.914;2023-05-02T15:31:31;13.30;99.90
52725;DHT22;38621;52.830;6.914;2023-05-02T15:33:58;13.30;99.90
52725;DHT22;38621;52.830;6.914;2023-05-02T15:36:28;13.20;99.90
52725;DHT22;38621;52.830;6.914;2023-05-02T15:38:55;13.00;99.90
52725;DHT22;38621;52.830;6.914;2023-05-02T15:41:20;12.90;99.90
52725;DHT22;38621;52.830;6.914;2023-05-02T15:43:46;12.70;99.90
52725;DHT22;38621;52.830;6.914;2023-05-02T15:46:12;12.60;99.90
52725;DHT22;38621;52.830;6.914;2023-05-02T15:48:37;12.50;99.90
52725;DHT22;38621;52.830;6.914;2023-05-02T15:51:03;12.40;99.90
52725;DHT22;38621;52.830;6.914;2023-05-02T15:53:33;12.40;99.90
52725;DHT22;38621;52.830;6.914;2023-05-02T15:56:12;12.30;99.90
52725;DHT22;38621;52.830;6.914;2023-05-02T15:58:38;12.30;99.90
52725;DHT22;38621;52.830;6.914;2023-05-02T16:01:05;12.20;99.90
52725;DHT22;38621;52.830;6.914;2023-05-02T16:03:31;12.20;99.90
52725;DHT22;38621;52.830;6.914;2023-05-02T16:05:58;12.20;99.90
52725;DHT22;38621;52.830;6.914;2023-05-02T16:08:27;12.20;99.90
52725;DHT22;38621;52.830;6.914;2023-05-02T16:10:53;12.10;99.90
52725;DHT22;38621;52.830;6.914;2023-05-02T16:13:20;12.10;99.90
52725;DHT22;38621;52.830;6.914;2023-05-02T16:15:46;12.10;99.90
52725;DHT22;38621;52.830;6.914;2023-05-02T16:18:18;12.00;99.90
52725;DHT22;38621;52.830;6.914;2023-05-02T16:20:44;11.90;99.90